sensor_id;sensor_type;location;lat;lon;timestamp;pressure;altitude;pressure_sealevel;temperature;humidity
79028;BME280;68427;48.476;19.102;2023-05-10T00:02:00;97752.88;;;4.53;78.78
79028;BME280;68427;48.476;19.102;2023-05-10T00:04:26;97742.41;;;4.63;77.59
79028;BME280;68427;48.476;19.102;2023-05-10T00:06:52;97744.97;;;4.55;78.26
79028;BME280;68427;48.476;19.102;2023-05-10T00:09:18;97738.03;;;4.64;77.20
79028;BME280;68427;48.476;19.102;2023-05-10T00:11:45;97739.38;;;4.68;77.87
79028;BME280;68427;48.476;19.102;2023-05-10T00:14:11;97729.13;;;4.66;77.00
79028;BME280;68427;48.476;19.102;2023-05-10T00:16:36;97740.50;;;4.65;77.27
79028;BME280;68427;48.476;19.102;2023-05-10T00:19:02;97738.56;;;4.67;76.91
79028;BME280;68427;48.476;19.102;2023-05-10T00:21:28;97727.22;;;4.68;77.14
79028;BME280;68427;48.476;19.102;2023-05-10T00:23:54;97721.31;;;4.58;78.15
79028;BME280;68427;48.476;19.102;2023-05-10T00:26:20;97725.31;;;4.52;78.07
79028;BME280;68427;48.476;19.102;2023-05-10T00:28:47;97720.13;;;4.52;77.54
79028;BME280;68427;48.476;19.102;2023-05-10T00:31:12;97726.97;;;4.36;79.55
79028;BME280;68427;48.476;19.102;2023-05-10T00:33:39;97724.38;;;4.36;78.47
79028;BME280;68427;48.476;19.102;2023-05-10T00:36:06;97724.53;;;4.34;77.29
79028;BME280;68427;48.476;19.102;2023-05-10T00:38:33;97715.44;;;4.30;77.87
79028;BME280;68427;48.476;19.102;2023-05-10T00:40:58;97705.50;;;4.25;77.61
79028;BME280;68427;48.476;19.102;2023-05-10T00:43:24;97714.38;;;4.23;77.41
79028;BME280;68427;48.476;19.102;2023-05-10T00:45:52;97700.94;;;4.19;77.88
79028;BME280;68427;48.476;19.102;2023-05-10T00:48:18;97697.34;;;4.20;77.57
79028;BME280;68427;48.476;19.102;2023-05-10T00:50:44;97701.72;;;4.20;77.83
79028;BME280;68427;48.476;19.102;2023-05-10T00:53:10;97710.63;;;4.17;77.27
79028;BME280;68427;48.476;19.102;2023-05-10T00:55:36;97694.84;;;4.10;78.12
79028;BME280;68427;48.476;19.102;2023-05-10T00:58:02;97690.63;;;4.09;77.34
79028;BME280;68427;48.476;19.102;2023-05-10T01:00:28;97698.03;;;4.04;78.59
79028;BME280;68427;48.476;19.102;2023-05-10T01:02:56;97688.13;;;4.00;78.00
79028;BME280;68427;48.476;19.102;2023-05-10T01:05:22;97691.44;;;3.92;77.91
79028;BME280;68427;48.476;19.102;2023-05-10T01:07:48;97685.53;;;3.82;77.97
79028;BME280;68427;48.476;19.102;2023-05-10T01:10:13;97697.19;;;3.86;78.29
79028;BME280;68427;48.476;19.102;2023-05-10T01:12:41;97692.31;;;3.83;77.75
79028;BME280;68427;48.476;19.102;2023-05-10T01:15:09;97690.47;;;3.75;78.35
79028;BME280;68427;48.476;19.102;2023-05-10T01:17:38;97694.59;;;3.68;78.29
79028;BME280;68427;48.476;19.102;2023-05-10T01:20:08;97690.09;;;3.70;77.96
79028;BME280;68427;48.476;19.102;2023-05-10T01:26:15;97690.16;;;3.60;79.05
79028;BME280;68427;48.476;19.102;2023-05-10T01:32:22;97694.44;;;3.52;80.06
79028;BME280;68427;48.476;19.102;2023-05-10T01:34:55;97686.13;;;3.48;79.39
79028;BME280;68427;48.476;19.102;2023-05-10T01:37:29;97687.47;;;3.52;79.38
79028;BME280;68427;48.476;19.102;2023-05-10T01:40:01;97689.69;;;3.47;78.94
79028;BME280;68427;48.476;19.102;2023-05-10T01:42:32;97691.31;;;3.48;79.74
79028;BME280;68427;48.476;19.102;2023-05-10T01:45:07;97683.75;;;3.37;79.25
79028;BME280;68427;48.476;19.102;2023-05-10T01:47:42;97693.94;;;3.38;79.19
79028;BME280;68427;48.476;19.102;2023-05-10T01:50:14;97685.53;;;3.36;79.38
79028;BME280;68427;48.476;19.102;2023-05-10T01:52:42;97699.03;;;3.30;79.97
79028;BME280;68427;48.476;19.102;2023-05-10T01:55:13;97696.75;;;3.27;79.50
79028;BME280;68427;48.476;19.102;2023-05-10T01:57:40;97695.28;;;3.15;79.95
79028;BME280;68427;48.476;19.102;2023-05-10T02:00:09;97680.88;;;3.12;79.88
79028;BME280;68427;48.476;19.102;2023-05-10T02:02:37;97695.69;;;3.20;79.83
79028;BME280;68427;48.476;19.102;2023-05-10T02:05:06;97680.56;;;3.15;80.09
79028;BME280;68427;48.476;19.102;2023-05-10T02:07:34;97686.38;;;2.99;80.98
79028;BME280;68427;48.476;19.102;2023-05-10T02:10:01;97686.28;;;2.91;81.70
79028;BME280;68427;48.476;19.102;2023-05-10T02:12:28;97679.31;;;2.92;81.58
79028;BME280;68427;48.476;19.102;2023-05-10T02:14:55;97683.41;;;2.94;80.68
79028;BME280;68427;48.476;19.102;2023-05-10T02:17:23;97678.63;;;2.90;81.71
79028;BME280;68427;48.476;19.102;2023-05-10T02:19:51;97684.59;;;3.00;81.15
79028;BME280;68427;48.476;19.102;2023-05-10T02:22:20;97689.91;;;2.98;80.85
79028;BME280;68427;48.476;19.102;2023-05-10T02:24:46;97677.81;;;2.99;81.14
79028;BME280;68427;48.476;19.102;2023-05-10T02:27:14;97688.13;;;3.09;81.41
79028;BME280;68427;48.476;19.102;2023-05-10T02:29:41;97690.25;;;3.13;81.21
79028;BME280;68427;48.476;19.102;2023-05-10T02:32:08;97693.38;;;3.17;81.36
79028;BME280;68427;48.476;19.102;2023-05-10T02:34:35;97681.75;;;3.21;82.25
79028;BME280;68427;48.476;19.102;2023-05-10T02:37:02;97674.13;;;3.29;81.93
79028;BME280;68427;48.476;19.102;2023-05-10T02:39:30;97699.03;;;3.30;82.36
79028;BME280;68427;48.476;19.102;2023-05-10T02:41:57;97681.59;;;3.32;81.90
79028;BME280;68427;48.476;19.102;2023-05-10T02:44:23;97691.34;;;3.38;82.17
79028;BME280;68427;48.476;19.102;2023-05-10T02:46:52;97687.53;;;3.42;82.06
79028;BME280;68427;48.476;19.102;2023-05-10T02:49:18;97690.00;;;3.44;82.64
79028;BME280;68427;48.476;19.102;2023-05-10T02:51:49;97691.75;;;3.43;82.15
79028;BME280;68427;48.476;19.102;2023-05-10T02:54:20;97686.56;;;3.43;83.07
79028;BME280;68427;48.476;19.102;2023-05-10T02:56:53;97691.03;;;3.51;82.42
79028;BME280;68427;48.476;19.102;2023-05-10T02:59:22;97689.78;;;3.55;82.61
79028;BME280;68427;48.476;19.102;2023-05-10T03:01:47;97705.56;;;3.62;82.90
79028;BME280;68427;48.476;19.102;2023-05-10T03:04:13;97708.53;;;3.67;82.97
79028;BME280;68427;48.476;19.102;2023-05-10T03:06:39;97694.28;;;3.71;82.65
79028;BME280;68427;48.476;19.102;2023-05-10T03:09:05;97706.09;;;3.83;82.18
79028;BME280;68427;48.476;19.102;2023-05-10T03:11:43;97701.13;;;3.90;82.73
79028;BME280;68427;48.476;19.102;2023-05-10T03:14:22;97703.44;;;3.93;82.06
79028;BME280;68427;48.476;19.102;2023-05-10T03:16:56;97707.38;;;3.97;82.73
79028;BME280;68427;48.476;19.102;2023-05-10T03:19:27;97700.63;;;4.04;81.72
79028;BME280;68427;48.476;19.102;2023-05-10T03:21:59;97703.28;;;4.13;81.42
79028;BME280;68427;48.476;19.102;2023-05-10T03:24:29;97706.75;;;4.21;81.69
79028;BME280;68427;48.476;19.102;2023-05-10T03:26:56;97693.34;;;4.26;83.33
79028;BME280;68427;48.476;19.102;2023-05-10T03:29:26;97706.22;;;4.36;82.40
79028;BME280;68427;48.476;19.102;2023-05-10T03:31:52;97705.09;;;4.38;81.64
79028;BME280;68427;48.476;19.102;2023-05-10T03:34:23;97696.75;;;4.44;81.51
79028;BME280;68427;48.476;19.102;2023-05-10T03:36:49;97699.38;;;4.52;81.99
79028;BME280;68427;48.476;19.102;2023-05-10T03:39:14;97702.66;;;4.54;81.93
79028;BME280;68427;48.476;19.102;2023-05-10T03:41:40;97693.41;;;4.52;81.63
79028;BME280;68427;48.476;19.102;2023-05-10T03:44:06;97692.94;;;4.57;82.24
79028;BME280;68427;48.476;19.102;2023-05-10T03:46:33;97693.59;;;4.59;80.92
79028;BME280;68427;48.476;19.102;2023-05-10T03:48:59;97700.72;;;4.57;82.11
79028;BME280;68427;48.476;19.102;2023-05-10T03:51:25;97699.13;;;4.64;81.65
79028;BME280;68427;48.476;19.102;2023-05-10T03:53:53;97704.88;;;4.75;81.75
79028;BME280;68427;48.476;19.102;2023-05-10T03:56:19;97709.00;;;4.86;80.82
79028;BME280;68427;48.476;19.102;2023-05-10T03:58:46;97701.28;;;4.94;81.31
79028;BME280;68427;48.476;19.102;2023-05-10T04:01:11;97698.06;;;5.01;80.92
79028;BME280;68427;48.476;19.102;2023-05-10T04:03:39;97699.84;;;5.00;80.82
79028;BME280;68427;48.476;19.102;2023-05-10T04:06:04;97694.63;;;4.92;81.72
79028;BME280;68427;48.476;19.102;2023-05-10T04:08:31;97695.91;;;4.96;80.45
79028;BME280;68427;48.476;19.102;2023-05-10T04:11:05;97701.28;;;4.94;80.56
79028;BME280;68427;48.476;19.102;2023-05-10T04:13:31;97699.84;;;5.00;79.76
79028;BME280;68427;48.476;19.102;2023-05-10T04:15:57;97697.75;;;5.04;80.02
79028;BME280;68427;48.476;19.102;2023-05-10T04:18:23;97697.47;;;5.07;79.99
79028;BME280;68427;48.476;19.102;2023-05-10T04:20:50;97698.44;;;5.14;79.46
79028;BME280;68427;48.476;19.102;2023-05-10T04:23:15;97697.97;;;5.18;79.11
79028;BME280;68427;48.476;19.102;2023-05-10T04:25:42;97694.00;;;5.32;79.34
79028;BME280;68427;48.476;19.102;2023-05-10T04:28:07;97697.59;;;5.39;79.63
79028;BME280;68427;48.476;19.102;2023-05-10T04:30:33;97694.88;;;5.49;79.27
79028;BME280;68427;48.476;19.102;2023-05-10T04:33:00;97702.03;;;5.55;79.75
79028;BME280;68427;48.476;19.102;2023-05-10T04:35:27;97697.97;;;5.61;79.02
79028;BME280;68427;48.476;19.102;2023-05-10T04:37:54;97699.13;;;5.67;79.58
79028;BME280;68427;48.476;19.102;2023-05-10T04:40:20;97696.72;;;5.81;78.58
79028;BME280;68427;48.476;19.102;2023-05-10T04:42:46;97688.84;;;5.99;78.04
79028;BME280;68427;48.476;19.102;2023-05-10T04:45:12;97702.81;;;6.31;76.42
79028;BME280;68427;48.476;19.102;2023-05-10T04:47:39;97699.91;;;6.51;76.16
79028;BME280;68427;48.476;19.102;2023-05-10T04:50:06;97703.78;;;6.71;76.31
79028;BME280;68427;48.476;19.102;2023-05-10T04:52:32;97697.91;;;6.85;74.85
79028;BME280;68427;48.476;19.102;2023-05-10T04:54:59;97692.19;;;6.98;75.37
79028;BME280;68427;48.476;19.102;2023-05-10T04:57:25;97696.41;;;7.07;75.43
79028;BME280;68427;48.476;19.102;2023-05-10T04:59:51;97697.31;;;7.14;74.56
79028;BME280;68427;48.476;19.102;2023-05-10T05:02:17;97696.50;;;7.14;73.99
79028;BME280;68427;48.476;19.102;2023-05-10T05:04:43;97703.34;;;7.23;73.05
79028;BME280;68427;48.476;19.102;2023-05-10T05:07:08;97689.81;;;7.28;73.45
79028;BME280;68427;48.476;19.102;2023-05-10T05:09:34;97709.31;;;7.40;73.37
79028;BME280;68427;48.476;19.102;2023-05-10T05:12:01;97705.66;;;7.57;72.34
79028;BME280;68427;48.476;19.102;2023-05-10T05:14:28;97701.97;;;7.75;72.19
79028;BME280;68427;48.476;19.102;2023-05-10T05:16:54;97707.06;;;7.91;70.06
79028;BME280;68427;48.476;19.102;2023-05-10T05:19:21;97698.97;;;8.09;70.32
79028;BME280;68427;48.476;19.102;2023-05-10T05:21:46;97702.50;;;8.16;70.16
79028;BME280;68427;48.476;19.102;2023-05-10T05:24:12;97711.78;;;8.19;69.55
79028;BME280;68427;48.476;19.102;2023-05-10T05:26:38;97707.34;;;8.28;69.19
79028;BME280;68427;48.476;19.102;2023-05-10T05:29:05;97697.34;;;8.31;69.62
79028;BME280;68427;48.476;19.102;2023-05-10T05:31:31;97697.13;;;8.41;69.39
79028;BME280;68427;48.476;19.102;2023-05-10T05:33:57;97703.59;;;8.68;68.85
79028;BME280;68427;48.476;19.102;2023-05-10T05:36:22;97715.69;;;8.99;68.70
79028;BME280;68427;48.476;19.102;2023-05-10T05:38:48;97705.31;;;9.35;68.67
79028;BME280;68427;48.476;19.102;2023-05-10T05:41:13;97707.25;;;9.78;66.60
79028;BME280;68427;48.476;19.102;2023-05-10T05:43:39;97705.09;;;9.81;66.80
79028;BME280;68427;48.476;19.102;2023-05-10T05:46:06;97712.72;;;9.83;66.38
79028;BME280;68427;48.476;19.102;2023-05-10T05:48:32;97711.28;;;9.80;66.33
79028;BME280;68427;48.476;19.102;2023-05-10T14:14:06;97516.69;;;18.48;37.24
79028;BME280;68427;48.476;19.102;2023-05-10T14:16:33;97512.41;;;18.25;40.28
79028;BME280;68427;48.476;19.102;2023-05-10T14:18:58;97511.28;;;18.21;40.00
79028;BME280;68427;48.476;19.102;2023-05-10T14:21:24;97529.00;;;17.98;42.05
79028;BME280;68427;48.476;19.102;2023-05-10T14:23:50;97514.72;;;17.54;41.54
79028;BME280;68427;48.476;19.102;2023-05-10T14:26:15;97524.97;;;17.33;41.08
79028;BME280;68427;48.476;19.102;2023-05-10T14:28:41;97520.47;;;17.34;41.67
79028;BME280;68427;48.476;19.102;2023-05-10T14:31:08;97511.88;;;17.26;42.04
79028;BME280;68427;48.476;19.102;2023-05-10T14:33:34;97516.44;;;17.02;42.42
79028;BME280;68427;48.476;19.102;2023-05-10T14:36:00;97515.66;;;16.90;42.85
79028;BME280;68427;48.476;19.102;2023-05-10T14:38:26;97519.44;;;17.06;42.84
79028;BME280;68427;48.476;19.102;2023-05-10T14:40:52;97521.06;;;16.95;43.01
79028;BME280;68427;48.476;19.102;2023-05-10T14:43:17;97517.81;;;17.05;41.84
79028;BME280;68427;48.476;19.102;2023-05-10T14:45:43;97516.91;;;16.99;41.93
79028;BME280;68427;48.476;19.102;2023-05-10T14:48:11;97510.91;;;17.04;41.48
79028;BME280;68427;48.476;19.102;2023-05-10T14:50:40;97517.09;;;17.10;42.75
79028;BME280;68427;48.476;19.102;2023-05-10T14:53:06;97509.72;;;17.12;41.99
79028;BME280;68427;48.476;19.102;2023-05-10T14:55:32;97516.28;;;16.80;41.61
79028;BME280;68427;48.476;19.102;2023-05-10T14:57:58;97519.34;;;16.89;41.83
79028;BME280;68427;48.476;19.102;2023-05-10T15:00:23;97519.16;;;17.08;42.02
79028;BME280;68427;48.476;19.102;2023-05-10T15:02:49;97518.25;;;17.14;41.97
79028;BME280;68427;48.476;19.102;2023-05-10T15:05:16;97522.31;;;17.33;41.02
79028;BME280;68427;48.476;19.102;2023-05-10T15:07:42;97525.16;;;17.43;40.63
79028;BME280;68427;48.476;19.102;2023-05-10T15:10:09;97519.13;;;17.19;39.27
79028;BME280;68427;48.476;19.102;2023-05-10T15:12:35;97522.44;;;17.26;41.66
79028;BME280;68427;48.476;19.102;2023-05-10T15:15:01;97520.69;;;17.32;40.77
79028;BME280;68427;48.476;19.102;2023-05-10T15:17:26;97515.97;;;17.34;41.93
79028;BME280;68427;48.476;19.102;2023-05-10T15:19:52;97517.56;;;17.35;41.80
79028;BME280;68427;48.476;19.102;2023-05-10T15:22:19;97518.66;;;17.51;40.89
79028;BME280;68427;48.476;19.102;2023-05-10T15:24:46;97511.72;;;17.50;42.37
79028;BME280;68427;48.476;19.102;2023-05-10T15:27:12;97516.53;;;17.82;38.57
79028;BME280;68427;48.476;19.102;2023-05-10T15:29:37;97517.28;;;17.65;38.17
79028;BME280;68427;48.476;19.102;2023-05-10T15:32:03;97513.97;;;17.41;38.49
79028;BME280;68427;48.476;19.102;2023-05-10T15:34:29;97510.09;;;17.61;37.90
79028;BME280;68427;48.476;19.102;2023-05-10T15:36:55;97512.19;;;17.76;38.90
79028;BME280;68427;48.476;19.102;2023-05-10T15:39:22;97507.91;;;17.75;38.50
79028;BME280;68427;48.476;19.102;2023-05-10T15:41:47;97503.16;;;17.60;35.52
79028;BME280;68427;48.476;19.102;2023-05-10T15:44:14;97492.34;;;17.78;37.12
79028;BME280;68427;48.476;19.102;2023-05-10T15:46:39;97506.38;;;17.62;37.15
79028;BME280;68427;48.476;19.102;2023-05-10T15:49:05;97499.63;;;17.54;37.26
79028;BME280;68427;48.476;19.102;2023-05-10T15:51:31;97498.81;;;17.70;39.76
79028;BME280;68427;48.476;19.102;2023-05-10T15:54:00;97510.97;;;17.66;38.28
79028;BME280;68427;48.476;19.102;2023-05-10T15:56:28;97508.53;;;17.48;39.25
79028;BME280;68427;48.476;19.102;2023-05-10T15:58:54;97497.03;;;17.42;39.09
79028;BME280;68427;48.476;19.102;2023-05-10T16:01:20;97501.41;;;17.48;38.84
79028;BME280;68427;48.476;19.102;2023-05-10T16:03:46;97502.50;;;17.36;39.29
79028;BME280;68427;48.476;19.102;2023-05-10T16:06:11;97502.06;;;17.27;39.53
79028;BME280;68427;48.476;19.102;2023-05-10T16:08:38;97496.19;;;17.08;40.51
79028;BME280;68427;48.476;19.102;2023-05-10T16:11:03;97499.34;;;16.93;41.18
79028;BME280;68427;48.476;19.102;2023-05-10T16:13:31;97500.47;;;16.97;42.30
79028;BME280;68427;48.476;19.102;2023-05-10T16:15:56;97504.56;;;17.05;41.55
79028;BME280;68427;48.476;19.102;2023-05-10T16:18:22;97507.13;;;17.00;41.72
79028;BME280;68427;48.476;19.102;2023-05-10T16:20:48;97502.81;;;16.82;42.84
79028;BME280;68427;48.476;19.102;2023-05-10T16:23:14;97508.19;;;16.87;42.67
79028;BME280;68427;48.476;19.102;2023-05-10T16:25:40;97504.97;;;16.85;41.58
79028;BME280;68427;48.476;19.102;2023-05-10T16:28:05;97502.00;;;16.81;41.55
79028;BME280;68427;48.476;19.102;2023-05-10T16:30:33;97501.88;;;16.88;43.21
79028;BME280;68427;48.476;19.102;2023-05-10T16:32:59;97498.19;;;16.89;42.08
79028;BME280;68427;48.476;19.102;2023-05-10T16:35:25;97496.03;;;16.86;42.21
79028;BME280;68427;48.476;19.102;2023-05-10T16:37:51;97498.56;;;16.81;42.81
79028;BME280;68427;48.476;19.102;2023-05-10T16:40:18;97501.31;;;16.74;43.07
79028;BME280;68427;48.476;19.102;2023-05-10T16:42:44;97505.34;;;16.65;43.22
79028;BME280;68427;48.476;19.102;2023-05-10T16:45:10;97509.19;;;16.46;43.57
79028;BME280;68427;48.476;19.102;2023-05-10T16:47:38;97501.38;;;16.51;44.07
79028;BME280;68427;48.476;19.102;2023-05-10T16:50:06;97512.97;;;16.50;44.08
79028;BME280;68427;48.476;19.102;2023-05-10T16:52:32;97510.78;;;16.47;44.52
79028;BME280;68427;48.476;19.102;2023-05-10T16:54:58;97515.38;;;16.51;45.92
79028;BME280;68427;48.476;19.102;2023-05-10T16:57:24;97514.16;;;16.30;45.38
79028;BME280;68427;48.476;19.102;2023-05-10T16:59:50;97519.31;;;16.25;45.46
79028;BME280;68427;48.476;19.102;2023-05-10T17:02:20;97531.28;;;16.28;45.90
79028;BME280;68427;48.476;19.102;2023-05-10T17:04:48;97529.19;;;16.06;46.33
79028;BME280;68427;48.476;19.102;2023-05-10T17:07:14;97526.88;;;15.98;46.34
79028;BME280;68427;48.476;19.102;2023-05-10T17:09:40;97533.78;;;15.99;47.06
79028;BME280;68427;48.476;19.102;2023-05-10T17:12:06;97532.38;;;15.73;46.07
79028;BME280;68427;48.476;19.102;2023-05-10T17:14:32;97530.22;;;15.51;47.25
79028;BME280;68427;48.476;19.102;2023-05-10T17:16:58;97535.44;;;15.40;48.19
79028;BME280;68427;48.476;19.102;2023-05-10T17:19:24;97531.53;;;15.30;47.16
79028;BME280;68427;48.476;19.102;2023-05-10T17:21:51;97540.91;;;15.26;48.90
79028;BME280;68427;48.476;19.102;2023-05-10T17:24:16;97537.81;;;15.29;49.99
79028;BME280;68427;48.476;19.102;2023-05-10T17:26:43;97535.63;;;15.26;48.85
79028;BME280;68427;48.476;19.102;2023-05-10T17:29:09;97546.19;;;15.26;50.23
79028;BME280;68427;48.476;19.102;2023-05-10T17:31:35;97538.13;;;15.21;48.74
79028;BME280;68427;48.476;19.102;2023-05-10T17:34:01;97536.75;;;15.19;48.27
79028;BME280;68427;48.476;19.102;2023-05-10T17:36:27;97546.81;;;15.10;50.04
79028;BME280;68427;48.476;19.102;2023-05-10T17:38:54;97540.38;;;15.06;51.03
79028;BME280;68427;48.476;19.102;2023-05-10T17:41:20;97545.34;;;14.96;50.16
79028;BME280;68427;48.476;19.102;2023-05-10T17:43:46;97545.38;;;14.77;50.93
79028;BME280;68427;48.476;19.102;2023-05-10T17:46:11;97546.38;;;14.76;48.36
79028;BME280;68427;48.476;19.102;2023-05-10T17:48:37;97544.56;;;14.77;50.24
79028;BME280;68427;48.476;19.102;2023-05-10T17:51:03;97547.28;;;14.70;49.09
79028;BME280;68427;48.476;19.102;2023-05-10T17:53:29;97543.25;;;14.67;50.23
79028;BME280;68427;48.476;19.102;2023-05-10T17:55:56;97546.00;;;14.54;50.81
79028;BME280;68427;48.476;19.102;2023-05-10T17:58:26;97555.41;;;14.43;50.48
79028;BME280;68427;48.476;19.102;2023-05-10T18:00:52;97557.16;;;14.31;49.55
79028;BME280;68427;48.476;19.102;2023-05-10T18:03:18;97562.06;;;14.27;48.67
79028;BME280;68427;48.476;19.102;2023-05-10T18:05:45;97556.63;;;14.22;49.73
79028;BME280;68427;48.476;19.102;2023-05-10T18:08:11;97561.50;;;14.19;50.63
79028;BME280;68427;48.476;19.102;2023-05-10T18:10:37;97574.81;;;14.05;52.33
79028;BME280;68427;48.476;19.102;2023-05-10T18:13:05;97575.75;;;13.86;52.29
79028;BME280;68427;48.476;19.102;2023-05-10T18:15:31;97573.56;;;13.83;52.03
79028;BME280;68427;48.476;19.102;2023-05-10T18:17:57;97576.78;;;13.85;52.18
79028;BME280;68427;48.476;19.102;2023-05-10T18:20:23;97584.53;;;13.80;53.94
79028;BME280;68427;48.476;19.102;2023-05-10T18:22:48;97582.94;;;13.72;54.60
79028;BME280;68427;48.476;19.102;2023-05-10T18:25:14;97586.88;;;13.56;56.57
79028;BME280;68427;48.476;19.102;2023-05-10T18:27:40;97581.53;;;13.38;55.75
79028;BME280;68427;48.476;19.102;2023-05-10T18:30:09;97575.47;;;13.37;56.26
79028;BME280;68427;48.476;19.102;2023-05-10T18:32:36;97584.16;;;13.31;57.83
79028;BME280;68427;48.476;19.102;2023-05-10T18:35:02;97586.84;;;13.18;58.02
79028;BME280;68427;48.476;19.102;2023-05-10T18:37:29;97591.75;;;13.08;58.17
79028;BME280;68427;48.476;19.102;2023-05-10T18:39:55;97590.53;;;13.04;57.96
79028;BME280;68427;48.476;19.102;2023-05-10T18:42:22;97591.56;;;13.03;59.06
79028;BME280;68427;48.476;19.102;2023-05-10T18:44:47;97598.66;;;12.89;60.00
79028;BME280;68427;48.476;19.102;2023-05-10T18:47:15;97603.34;;;12.73;60.33
79028;BME280;68427;48.476;19.102;2023-05-10T18:49:40;97592.28;;;12.65;60.35
79028;BME280;68427;48.476;19.102;2023-05-10T18:52:06;97600.56;;;12.55;60.38
79028;BME280;68427;48.476;19.102;2023-05-10T18:54:32;97602.81;;;12.51;60.67
79028;BME280;68427;48.476;19.102;2023-05-10T18:56:58;97606.66;;;12.49;60.71
79028;BME280;68427;48.476;19.102;2023-05-10T18:59:24;97616.16;;;12.57;60.91
79028;BME280;68427;48.476;19.102;2023-05-10T19:01:52;97622.00;;;12.45;61.53
79028;BME280;68427;48.476;19.102;2023-05-10T19:04:19;97619.59;;;12.37;61.39
79028;BME280;68427;48.476;19.102;2023-05-10T19:06:45;97608.69;;;12.27;62.51
79028;BME280;68427;48.476;19.102;2023-05-10T19:09:11;97610.06;;;12.16;62.28
79028;BME280;68427;48.476;19.102;2023-05-10T19:11:38;97615.13;;;12.18;62.44
79028;BME280;68427;48.476;19.102;2023-05-10T19:14:03;97616.75;;;12.19;62.33
79028;BME280;68427;48.476;19.102;2023-05-10T19:16:30;97617.16;;;12.09;61.03
79028;BME280;68427;48.476;19.102;2023-05-10T19:18:58;97622.81;;;12.13;61.37
79028;BME280;68427;48.476;19.102;2023-05-10T19:21:26;97614.72;;;12.07;63.36
79028;BME280;68427;48.476;19.102;2023-05-10T19:23:52;97623.81;;;11.98;63.28
79028;BME280;68427;48.476;19.102;2023-05-10T19:26:18;97617.13;;;11.96;62.81
79028;BME280;68427;48.476;19.102;2023-05-10T19:28:44;97624.81;;;11.91;63.23
79028;BME280;68427;48.476;19.102;2023-05-10T19:31:10;97632.50;;;11.92;63.65
79028;BME280;68427;48.476;19.102;2023-05-10T19:33:36;97625.59;;;11.84;64.51
79028;BME280;68427;48.476;19.102;2023-05-10T19:36:02;97626.81;;;11.88;64.17
79028;BME280;68427;48.476;19.102;2023-05-10T19:38:30;97623.59;;;11.86;64.69
79028;BME280;68427;48.476;19.102;2023-05-10T19:40:56;97619.91;;;11.74;65.37
79028;BME280;68427;48.476;19.102;2023-05-10T19:43:24;97618.66;;;11.63;65.10
79028;BME280;68427;48.476;19.102;2023-05-10T19:45:50;97614.03;;;11.59;65.21
79028;BME280;68427;48.476;19.102;2023-05-10T19:48:16;97618.66;;;11.63;64.89
79028;BME280;68427;48.476;19.102;2023-05-10T19:50:42;97617.66;;;11.64;65.73
79028;BME280;68427;48.476;19.102;2023-05-10T19:53:08;97627.16;;;11.65;65.91
79028;BME280;68427;48.476;19.102;2023-05-10T19:55:35;97619.25;;;11.52;66.22
79028;BME280;68427;48.476;19.102;2023-05-10T19:58:02;97622.47;;;11.48;66.30
79028;BME280;68427;48.476;19.102;2023-05-10T20:00:28;97616.81;;;11.44;66.84
79028;BME280;68427;48.476;19.102;2023-05-10T20:02:53;97620.63;;;11.41;66.70
79028;BME280;68427;48.476;19.102;2023-05-10T20:05:21;97616.41;;;11.47;67.11
79028;BME280;68427;48.476;19.102;2023-05-10T20:07:47;97628.69;;;11.40;67.35
79028;BME280;68427;48.476;19.102;2023-05-10T20:10:12;97629.69;;;11.32;68.25
79028;BME280;68427;48.476;19.102;2023-05-10T20:12:39;97625.22;;;11.33;67.89
79028;BME280;68427;48.476;19.102;2023-05-10T20:15:07;97632.69;;;11.29;68.26
79028;BME280;68427;48.476;19.102;2023-05-10T20:17:34;97622.16;;;11.22;67.83
79028;BME280;68427;48.476;19.102;2023-05-10T20:19:59;97629.81;;;11.17;69.15
79028;BME280;68427;48.476;19.102;2023-05-10T20:22:25;97625.16;;;11.13;68.13
79028;BME280;68427;48.476;19.102;2023-05-10T20:24:51;97622.13;;;11.09;69.60
79028;BME280;68427;48.476;19.102;2023-05-10T20:27:17;97633.53;;;10.95;69.26
79028;BME280;68427;48.476;19.102;2023-05-10T20:29:44;97618.78;;;10.87;69.92
79028;BME280;68427;48.476;19.102;2023-05-10T20:32:10;97620.53;;;10.80;69.42
79028;BME280;68427;48.476;19.102;2023-05-10T20:34:36;97622.53;;;10.78;70.06
79028;BME280;68427;48.476;19.102;2023-05-10T20:37:01;97633.00;;;10.71;69.67
79028;BME280;68427;48.476;19.102;2023-05-10T20:39:28;97638.81;;;10.67;70.00
79028;BME280;68427;48.476;19.102;2023-05-10T20:41:54;97627.09;;;10.63;69.77
79028;BME280;68427;48.476;19.102;2023-05-10T20:44:20;97634.31;;;10.60;69.89
79028;BME280;68427;48.476;19.102;2023-05-10T20:46:47;97629.69;;;10.56;70.80
79028;BME280;68427;48.476;19.102;2023-05-10T20:49:12;97636.69;;;10.49;71.00
79028;BME280;68427;48.476;19.102;2023-05-10T20:51:38;97639.25;;;10.42;70.87
79028;BME280;68427;48.476;19.102;2023-05-10T20:54:04;97626.16;;;10.42;71.03
79028;BME280;68427;48.476;19.102;2023-05-10T20:56:30;97623.44;;;10.29;71.48
79028;BME280;68427;48.476;19.102;2023-05-10T20:58:55;97632.63;;;10.25;71.26
79028;BME280;68427;48.476;19.102;2023-05-10T21:01:21;97634.81;;;10.21;71.90
79028;BME280;68427;48.476;19.102;2023-05-10T21:03:48;97633.47;;;10.04;72.07
79028;BME280;68427;48.476;19.102;2023-05-10T21:06:14;97635.63;;;10.00;71.97
79028;BME280;68427;48.476;19.102;2023-05-10T21:08:40;97624.09;;;9.94;72.15
79028;BME280;68427;48.476;19.102;2023-05-10T21:11:05;97635.50;;;9.87;72.46
79028;BME280;68427;48.476;19.102;2023-05-10T21:13:31;97636.31;;;9.87;71.99
79028;BME280;68427;48.476;19.102;2023-05-10T21:15:57;97635.63;;;9.79;72.42
79028;BME280;68427;48.476;19.102;2023-05-10T21:18:23;97630.59;;;9.77;72.09
79028;BME280;68427;48.476;19.102;2023-05-10T21:20:50;97628.78;;;9.78;72.60
79028;BME280;68427;48.476;19.102;2023-05-10T21:23:15;97638.97;;;9.72;71.91